Terminal Aerodrome Forecast
Issued by NWS Mt. Holly, NJ

Home | Current Version | Previous Version | Text Only | Print | Product List | Glossary On
Versions: 1 2 3 4 5 6 7 8 9 10 11 12 13 14 15 16 17
987
FTUS41 KPHI 291515 AAC
TAFABE
TAF AMD
KABE 291515Z 2915/3012 12008KT P6SM BKN015 OVC025
     FM292000 10005KT P6SM BKN020
     FM300000 12006KT P6SM OVC007
     FM300600 VRB03KT 2SM -DZ BR BKN003=

USA.gov is the U.S. government's official web portal to all federal, state and local government web resources and services.